sensor_id;sensor_type;location;lat;lon;timestamp;pressure;altitude;pressure_sealevel;temperature;humidity
60240;BME280;46102;39.012;-7.064;2023-05-25T00:00:44;98316.72;;;19.59;60.16
60240;BME280;46102;39.012;-7.064;2023-05-25T00:02:44;98315.91;;;19.59;60.14
60240;BME280;46102;39.012;-7.064;2023-05-25T00:04:46;98309.97;;;19.60;59.83
60240;BME280;46102;39.012;-7.064;2023-05-25T00:06:47;98309.56;;;19.58;59.97
60240;BME280;46102;39.012;-7.064;2023-05-25T00:08:48;98307.53;;;19.55;59.94
60240;BME280;46102;39.012;-7.064;2023-05-25T00:10:51;98308.72;;;19.54;59.85
60240;BME280;46102;39.012;-7.064;2023-05-25T00:12:52;98301.19;;;19.54;59.99
60240;BME280;46102;39.012;-7.064;2023-05-25T00:14:55;98304.34;;;19.53;59.80
60240;BME280;46102;39.012;-7.064;2023-05-25T00:16:56;98305.50;;;19.52;59.99
60240;BME280;46102;39.012;-7.064;2023-05-25T00:18:57;98307.50;;;19.51;60.09
60240;BME280;46102;39.012;-7.064;2023-05-25T00:20:58;98311.47;;;19.50;60.06
60240;BME280;46102;39.012;-7.064;2023-05-25T00:23:04;98303.09;;;19.47;60.11
60240;BME280;46102;39.012;-7.064;2023-05-25T00:25:05;98305.44;;;19.45;60.36
60240;BME280;46102;39.012;-7.064;2023-05-25T00:27:07;98301.81;;;19.41;60.51
60240;BME280;46102;39.012;-7.064;2023-05-25T00:29:07;98305.03;;;19.43;60.42
60240;BME280;46102;39.012;-7.064;2023-05-25T00:31:08;98303.06;;;19.43;60.51
60240;BME280;46102;39.012;-7.064;2023-05-25T00:33:10;98306.63;;;19.44;60.98
60240;BME280;46102;39.012;-7.064;2023-05-25T00:35:11;98304.97;;;19.35;61.33
60240;BME280;46102;39.012;-7.064;2023-05-25T00:37:13;98315.22;;;19.28;61.75
60240;BME280;46102;39.012;-7.064;2023-05-25T00:39:17;98314.75;;;19.22;62.01
60240;BME280;46102;39.012;-7.064;2023-05-25T00:41:19;98316.69;;;19.18;62.45
60240;BME280;46102;39.012;-7.064;2023-05-25T00:43:20;98317.81;;;19.13;62.63
60240;BME280;46102;39.012;-7.064;2023-05-25T00:45:21;98317.81;;;19.10;62.79
60240;BME280;46102;39.012;-7.064;2023-05-25T00:47:23;98321.38;;;19.10;62.86
60240;BME280;46102;39.012;-7.064;2023-05-25T00:49:24;98327.66;;;19.04;62.85
60240;BME280;46102;39.012;-7.064;2023-05-25T00:51:26;98322.84;;;19.01;63.02
60240;BME280;46102;39.012;-7.064;2023-05-25T00:53:26;98328.38;;;18.97;63.11
60240;BME280;46102;39.012;-7.064;2023-05-25T00:55:28;98328.72;;;18.96;63.15
60240;BME280;46102;39.012;-7.064;2023-05-25T00:57:32;98314.31;;;18.86;63.16
60240;BME280;46102;39.012;-7.064;2023-05-25T00:59:45;98325.03;;;18.84;63.32
60240;BME280;46102;39.012;-7.064;2023-05-25T01:01:46;98324.22;;;18.84;63.25
60240;BME280;46102;39.012;-7.064;2023-05-25T01:03:50;98326.97;;;18.80;63.19
60240;BME280;46102;39.012;-7.064;2023-05-25T01:05:53;98321.78;;;18.79;63.05
60240;BME280;46102;39.012;-7.064;2023-05-25T01:07:58;98328.50;;;18.78;63.04
60240;BME280;46102;39.012;-7.064;2023-05-25T01:10:04;98328.88;;;18.76;62.94
60240;BME280;46102;39.012;-7.064;2023-05-25T01:12:06;98327.25;;;18.75;62.77
60240;BME280;46102;39.012;-7.064;2023-05-25T01:14:09;98328.81;;;18.72;62.92
60240;BME280;46102;39.012;-7.064;2023-05-25T01:16:11;98328.78;;;18.69;62.94
60240;BME280;46102;39.012;-7.064;2023-05-25T01:18:16;98330.31;;;18.66;62.87
60240;BME280;46102;39.012;-7.064;2023-05-25T01:20:17;98326.31;;;18.64;63.20
60240;BME280;46102;39.012;-7.064;2023-05-25T01:22:30;98340.19;;;18.64;63.33
60240;BME280;46102;39.012;-7.064;2023-05-25T01:24:43;98346.59;;;18.64;63.42
60240;BME280;46102;39.012;-7.064;2023-05-25T01:26:54;98335.41;;;18.61;63.62
60240;BME280;46102;39.012;-7.064;2023-05-25T01:28:58;98346.78;;;18.52;64.24
60240;BME280;46102;39.012;-7.064;2023-05-25T01:31:01;98349.81;;;18.40;64.51
60240;BME280;46102;39.012;-7.064;2023-05-25T01:33:03;98352.88;;;18.35;64.68
60240;BME280;46102;39.012;-7.064;2023-05-25T01:35:05;98362.75;;;18.32;64.74
60240;BME280;46102;39.012;-7.064;2023-05-25T01:37:08;98356.78;;;18.30;64.94
60240;BME280;46102;39.012;-7.064;2023-05-25T01:39:11;98357.22;;;18.32;64.85
60240;BME280;46102;39.012;-7.064;2023-05-25T01:41:12;98360.06;;;18.36;64.67
60240;BME280;46102;39.012;-7.064;2023-05-25T01:43:13;98356.16;;;18.40;64.42
60240;BME280;46102;39.012;-7.064;2023-05-25T01:45:14;98352.63;;;18.43;64.33
60240;BME280;46102;39.012;-7.064;2023-05-25T01:47:22;98349.91;;;18.47;64.24
60240;BME280;46102;39.012;-7.064;2023-05-25T01:49:45;98355.88;;;18.49;64.29
60240;BME280;46102;39.012;-7.064;2023-05-25T01:54:20;98350.63;;;18.44;64.16
60240;BME280;46102;39.012;-7.064;2023-05-25T01:56:24;98349.81;;;18.40;64.25
60240;BME280;46102;39.012;-7.064;2023-05-25T01:58:33;98350.16;;;18.38;64.34
60240;BME280;46102;39.012;-7.064;2023-05-25T02:00:35;98350.53;;;18.37;64.58
60240;BME280;46102;39.012;-7.064;2023-05-25T02:02:40;98350.84;;;18.31;64.79
60240;BME280;46102;39.012;-7.064;2023-05-25T02:04:42;98354.66;;;18.20;65.11
60240;BME280;46102;39.012;-7.064;2023-05-25T02:06:47;98351.00;;;18.16;65.29
60240;BME280;46102;39.012;-7.064;2023-05-25T02:08:48;98360.03;;;18.09;65.56
60240;BME280;46102;39.012;-7.064;2023-05-25T02:10:49;98365.72;;;17.93;66.43
60240;BME280;46102;39.012;-7.064;2023-05-25T02:12:49;98367.84;;;17.80;67.02
60240;BME280;46102;39.012;-7.064;2023-05-25T02:14:52;98363.34;;;17.72;67.65
60240;BME280;46102;39.012;-7.064;2023-05-25T02:16:52;98363.72;;;17.71;67.52
60240;BME280;46102;39.012;-7.064;2023-05-25T02:18:53;98365.25;;;17.68;67.97
60240;BME280;46102;39.012;-7.064;2023-05-25T02:20:57;98358.09;;;17.67;68.15
60240;BME280;46102;39.012;-7.064;2023-05-25T02:22:59;98351.75;;;17.66;67.77
60240;BME280;46102;39.012;-7.064;2023-05-25T02:25:00;98353.72;;;17.66;67.88
60240;BME280;46102;39.012;-7.064;2023-05-25T02:27:05;98360.41;;;17.65;68.06
60240;BME280;46102;39.012;-7.064;2023-05-25T02:29:06;98356.13;;;17.67;67.80
60240;BME280;46102;39.012;-7.064;2023-05-25T02:31:07;98350.19;;;17.69;67.79
60240;BME280;46102;39.012;-7.064;2023-05-25T02:33:07;98353.75;;;17.69;67.95
60240;BME280;46102;39.012;-7.064;2023-05-25T02:35:09;98346.72;;;17.72;67.78
60240;BME280;46102;39.012;-7.064;2023-05-25T02:37:10;98347.94;;;17.75;67.64
60240;BME280;46102;39.012;-7.064;2023-05-25T02:39:12;98343.25;;;17.79;67.22
60240;BME280;46102;39.012;-7.064;2023-05-25T02:41:14;98342.06;;;17.80;67.04
60240;BME280;46102;39.012;-7.064;2023-05-25T02:43:15;98340.47;;;17.79;66.96
60240;BME280;46102;39.012;-7.064;2023-05-25T02:45:17;98345.19;;;17.78;67.13
60240;BME280;46102;39.012;-7.064;2023-05-25T02:47:18;98346.44;;;17.81;67.29
60240;BME280;46102;39.012;-7.064;2023-05-25T02:49:19;98349.66;;;17.83;67.08
60240;BME280;46102;39.012;-7.064;2023-05-25T02:51:21;98350.09;;;17.85;67.01
60240;BME280;46102;39.012;-7.064;2023-05-25T02:53:22;98345.06;;;17.91;67.04
60240;BME280;46102;39.012;-7.064;2023-05-25T02:55:23;98349.84;;;17.94;66.83
60240;BME280;46102;39.012;-7.064;2023-05-25T02:57:25;98348.28;;;17.93;66.80
60240;BME280;46102;39.012;-7.064;2023-05-25T02:59:28;98339.06;;;17.88;66.87
60240;BME280;46102;39.012;-7.064;2023-05-25T03:01:28;98343.00;;;17.87;67.00
60240;BME280;46102;39.012;-7.064;2023-05-25T03:03:30;98345.34;;;17.85;67.22
60240;BME280;46102;39.012;-7.064;2023-05-25T03:05:31;98348.94;;;17.86;67.16
60240;BME280;46102;39.012;-7.064;2023-05-25T03:07:37;98346.53;;;17.84;67.09
60240;BME280;46102;39.012;-7.064;2023-05-25T03:09:38;98343.75;;;17.84;67.29
60240;BME280;46102;39.012;-7.064;2023-05-25T03:11:38;98348.50;;;17.84;67.22
60240;BME280;46102;39.012;-7.064;2023-05-25T03:13:40;98339.41;;;17.83;67.43
60240;BME280;46102;39.012;-7.064;2023-05-25T03:15:40;98345.00;;;17.87;67.27
60240;BME280;46102;39.012;-7.064;2023-05-25T03:17:41;98341.06;;;17.88;67.12
60240;BME280;46102;39.012;-7.064;2023-05-25T03:19:42;98338.72;;;17.90;66.84
60240;BME280;46102;39.012;-7.064;2023-05-25T03:21:44;98345.84;;;17.91;66.96
60240;BME280;46102;39.012;-7.064;2023-05-25T03:23:45;98339.13;;;17.92;66.92
60240;BME280;46102;39.012;-7.064;2023-05-25T03:25:46;98336.75;;;17.91;66.51
60240;BME280;46102;39.012;-7.064;2023-05-25T03:27:47;98343.44;;;17.89;66.66
60240;BME280;46102;39.012;-7.064;2023-05-25T03:29:51;98345.00;;;17.87;66.53
60240;BME280;46102;39.012;-7.064;2023-05-25T03:31:51;98337.03;;;17.85;66.55
60240;BME280;46102;39.012;-7.064;2023-05-25T03:33:54;98333.41;;;17.81;66.81
60240;BME280;46102;39.012;-7.064;2023-05-25T03:35:56;98333.41;;;17.81;66.76
60240;BME280;46102;39.012;-7.064;2023-05-25T03:37:57;98335.72;;;17.79;66.61
60240;BME280;46102;39.012;-7.064;2023-05-25T03:39:58;98336.09;;;17.78;66.83
60240;BME280;46102;39.012;-7.064;2023-05-25T03:41:59;98332.16;;;17.79;66.68
60240;BME280;46102;39.012;-7.064;2023-05-25T03:44:00;98332.16;;;17.79;66.69
60240;BME280;46102;39.012;-7.064;2023-05-25T03:46:01;98330.97;;;17.80;66.89
60240;BME280;46102;39.012;-7.064;2023-05-25T03:48:02;98338.09;;;17.81;67.10
60240;BME280;46102;39.012;-7.064;2023-05-25T03:50:05;98331.75;;;17.80;67.31
60240;BME280;46102;39.012;-7.064;2023-05-25T03:52:06;98335.34;;;17.81;67.60
60240;BME280;46102;39.012;-7.064;2023-05-25T03:54:07;98334.22;;;17.82;67.52
60240;BME280;46102;39.012;-7.064;2023-05-25T03:56:08;98343.75;;;17.84;67.35
60240;BME280;46102;39.012;-7.064;2023-05-25T03:58:11;98339.00;;;17.85;67.29
60240;BME280;46102;39.012;-7.064;2023-05-25T04:00:13;98333.47;;;17.85;66.92
60240;BME280;46102;39.012;-7.064;2023-05-25T04:02:13;98336.63;;;17.83;66.81
60240;BME280;46102;39.012;-7.064;2023-05-25T04:04:14;98339.75;;;17.82;66.97
60240;BME280;46102;39.012;-7.064;2023-05-25T04:06:16;98336.09;;;17.78;67.03
60240;BME280;46102;39.012;-7.064;2023-05-25T04:08:18;98335.59;;;17.72;67.46
60240;BME280;46102;39.012;-7.064;2023-05-25T04:10:19;98337.44;;;17.64;67.53
60240;BME280;46102;39.012;-7.064;2023-05-25T04:12:20;98342.88;;;17.57;67.83
60240;BME280;46102;39.012;-7.064;2023-05-25T04:14:21;98343.22;;;17.56;68.01
60240;BME280;46102;39.012;-7.064;2023-05-25T04:16:22;98336.44;;;17.53;68.19
60240;BME280;46102;39.012;-7.064;2023-05-25T04:18:26;98336.81;;;17.52;68.13
60240;BME280;46102;39.012;-7.064;2023-05-25T04:20:26;98335.22;;;17.51;68.22
60240;BME280;46102;39.012;-7.064;2023-05-25T04:22:28;98335.97;;;17.47;68.38
60240;BME280;46102;39.012;-7.064;2023-05-25T04:24:29;98339.53;;;17.48;68.17
60240;BME280;46102;39.012;-7.064;2023-05-25T04:26:32;98339.53;;;17.48;68.04
60240;BME280;46102;39.012;-7.064;2023-05-25T04:28:34;98343.47;;;17.47;68.29
60240;BME280;46102;39.012;-7.064;2023-05-25T04:31:02;98343.84;;;17.45;68.29
60240;BME280;46102;39.012;-7.064;2023-05-25T04:33:10;98346.63;;;17.45;68.40
60240;BME280;46102;39.012;-7.064;2023-05-25T04:35:29;98345.44;;;17.46;68.15
60240;BME280;46102;39.012;-7.064;2023-05-25T04:37:31;98341.88;;;17.46;68.26
60240;BME280;46102;39.012;-7.064;2023-05-25T04:39:33;98346.97;;;17.44;68.19
60240;BME280;46102;39.012;-7.064;2023-05-25T04:41:35;98354.09;;;17.45;68.29
60240;BME280;46102;39.012;-7.064;2023-05-25T04:43:40;98346.63;;;17.45;68.44
60240;BME280;46102;39.012;-7.064;2023-05-25T04:45:46;98352.97;;;17.46;68.31
60240;BME280;46102;39.012;-7.064;2023-05-25T04:47:47;98355.72;;;17.46;68.21
60240;BME280;46102;39.012;-7.064;2023-05-25T04:49:50;98355.66;;;17.42;68.43
60240;BME280;46102;39.012;-7.064;2023-05-25T04:51:51;98361.59;;;17.41;68.40
60240;BME280;46102;39.012;-7.064;2023-05-25T04:53:52;98357.16;;;17.36;68.81
60240;BME280;46102;39.012;-7.064;2023-05-25T04:55:53;98349.94;;;17.32;69.13
60240;BME280;46102;39.012;-7.064;2023-05-25T04:57:54;98356.13;;;17.25;69.50
60240;BME280;46102;39.012;-7.064;2023-05-25T04:59:57;98358.47;;;17.23;69.73
60240;BME280;46102;39.012;-7.064;2023-05-25T05:01:58;98358.81;;;17.21;69.56
60240;BME280;46102;39.012;-7.064;2023-05-25T05:04:00;98356.84;;;17.22;69.55
60240;BME280;46102;39.012;-7.064;2023-05-25T05:06:01;98357.59;;;17.19;69.44
60240;BME280;46102;39.012;-7.064;2023-05-25T05:08:04;98359.94;;;17.17;69.20
60240;BME280;46102;39.012;-7.064;2023-05-25T05:10:06;98355.13;;;17.14;69.91
60240;BME280;46102;39.012;-7.064;2023-05-25T05:12:09;98356.56;;;17.08;69.89
60240;BME280;46102;39.012;-7.064;2023-05-25T05:14:14;98359.00;;;17.09;70.07
60240;BME280;46102;39.012;-7.064;2023-05-25T05:16:17;98351.91;;;17.12;69.98
60240;BME280;46102;39.012;-7.064;2023-05-25T05:18:18;98358.25;;;17.12;70.14
60240;BME280;46102;39.012;-7.064;2023-05-25T05:20:19;98359.47;;;17.15;70.05
60240;BME280;46102;39.012;-7.064;2023-05-25T05:22:20;98355.97;;;17.18;70.09
60240;BME280;46102;39.012;-7.064;2023-05-25T05:24:21;98359.19;;;17.20;69.84
60240;BME280;46102;39.012;-7.064;2023-05-25T05:26:22;98357.66;;;17.22;69.60
60240;BME280;46102;39.012;-7.064;2023-05-25T05:28:23;98362.03;;;17.23;69.65
60240;BME280;46102;39.012;-7.064;2023-05-25T05:30:27;98361.25;;;17.23;69.58
60240;BME280;46102;39.012;-7.064;2023-05-25T05:32:27;98364.00;;;17.23;69.84
60240;BME280;46102;39.012;-7.064;2023-05-25T05:34:29;98367.59;;;17.23;69.83
60240;BME280;46102;39.012;-7.064;2023-05-25T05:36:31;98365.69;;;17.27;69.73
60240;BME280;46102;39.012;-7.064;2023-05-25T05:38:33;98375.28;;;17.34;69.71
60240;BME280;46102;39.012;-7.064;2023-05-25T05:40:34;98377.69;;;17.35;69.59
60240;BME280;46102;39.012;-7.064;2023-05-25T05:42:35;98372.16;;;17.35;69.64
60240;BME280;46102;39.012;-7.064;2023-05-25T05:44:36;98368.22;;;17.36;69.78
60240;BME280;46102;39.012;-7.064;2023-05-25T05:46:37;98384.13;;;17.39;69.96
60240;BME280;46102;39.012;-7.064;2023-05-25T05:48:38;98382.94;;;17.40;69.83
60240;BME280;46102;39.012;-7.064;2023-05-25T05:50:39;98389.00;;;17.46;69.87
60240;BME280;46102;39.012;-7.064;2023-05-25T05:52:40;98391.47;;;17.51;69.71
60240;BME280;46102;39.012;-7.064;2023-05-25T05:54:43;98389.22;;;17.57;69.29
60240;BME280;46102;39.012;-7.064;2023-05-25T05:56:47;98392.47;;;17.62;69.12
60240;BME280;46102;39.012;-7.064;2023-05-25T05:58:48;98394.97;;;17.67;68.65
60240;BME280;46102;39.012;-7.064;2023-05-25T06:00:52;98401.00;;;17.73;68.16
60240;BME280;46102;39.012;-7.064;2023-05-25T06:02:53;98404.28;;;17.79;67.81
60240;BME280;46102;39.012;-7.064;2023-05-25T06:04:58;98405.59;;;17.85;66.86
60240;BME280;46102;39.012;-7.064;2023-05-25T06:06:59;98402.03;;;17.84;66.86
60240;BME280;46102;39.012;-7.064;2023-05-25T06:09:00;98404.88;;;17.88;66.59
60240;BME280;46102;39.012;-7.064;2023-05-25T06:11:03;98406.81;;;17.87;66.43
60240;BME280;46102;39.012;-7.064;2023-05-25T06:13:04;98406.47;;;17.89;66.57
60240;BME280;46102;39.012;-7.064;2023-05-25T06:15:07;98406.59;;;17.96;66.41
60240;BME280;46102;39.012;-7.064;2023-05-25T06:17:10;98404.34;;;18.05;66.33
60240;BME280;46102;39.012;-7.064;2023-05-25T06:19:11;98410.84;;;18.13;66.05
60240;BME280;46102;39.012;-7.064;2023-05-25T06:21:14;98413.81;;;18.24;65.90
60240;BME280;46102;39.012;-7.064;2023-05-25T06:23:15;98412.38;;;18.34;65.71
60240;BME280;46102;39.012;-7.064;2023-05-25T06:25:17;98411.72;;;18.44;65.34
60240;BME280;46102;39.012;-7.064;2023-05-25T06:27:18;98417.78;;;18.49;65.26
60240;BME280;46102;39.012;-7.064;2023-05-25T06:29:19;98423.00;;;18.55;65.11
60240;BME280;46102;39.012;-7.064;2023-05-25T06:31:20;98419.91;;;18.60;64.91
60240;BME280;46102;39.012;-7.064;2023-05-25T06:33:22;98419.97;;;18.63;64.63
60240;BME280;46102;39.012;-7.064;2023-05-25T06:35:23;98420.47;;;18.69;64.39
60240;BME280;46102;39.012;-7.064;2023-05-25T06:37:26;98427.25;;;18.71;64.21
60240;BME280;46102;39.012;-7.064;2023-05-25T06:39:27;98421.03;;;18.78;63.47
60240;BME280;46102;39.012;-7.064;2023-05-25T06:41:27;98417.91;;;18.83;62.74
60240;BME280;46102;39.012;-7.064;2023-05-25T06:43:30;98425.19;;;18.91;62.41
60240;BME280;46102;39.012;-7.064;2023-05-25T06:45:43;98426.88;;;19.00;61.82
60240;BME280;46102;39.012;-7.064;2023-05-25T06:47:44;98426.59;;;19.08;61.50
60240;BME280;46102;39.012;-7.064;2023-05-25T06:49:45;98420.31;;;19.15;61.43
60240;BME280;46102;39.012;-7.064;2023-05-25T06:51:46;98416.13;;;19.28;60.79
60240;BME280;46102;39.012;-7.064;2023-05-25T06:53:48;98421.03;;;19.39;60.17
60240;BME280;46102;39.012;-7.064;2023-05-25T06:55:49;98421.09;;;19.46;59.95
60240;BME280;46102;39.012;-7.064;2023-05-25T06:57:50;98422.34;;;19.52;59.59
60240;BME280;46102;39.012;-7.064;2023-05-25T06:59:51;98421.63;;;19.59;59.10
60240;BME280;46102;39.012;-7.064;2023-05-25T07:01:51;98423.41;;;19.70;58.72
60240;BME280;46102;39.012;-7.064;2023-05-25T07:03:53;98421.91;;;19.80;58.54
60240;BME280;46102;39.012;-7.064;2023-05-25T07:05:54;98422.00;;;19.91;58.56
60240;BME280;46102;39.012;-7.064;2023-05-25T07:07:55;98420.13;;;20.02;57.91
60240;BME280;46102;39.012;-7.064;2023-05-25T07:09:55;98419.03;;;20.14;57.11
60240;BME280;46102;39.012;-7.064;2023-05-25T07:11:56;98417.09;;;20.22;56.85
60240;BME280;46102;39.012;-7.064;2023-05-25T07:13:57;98422.78;;;20.32;57.05
60240;BME280;46102;39.012;-7.064;2023-05-25T07:15:58;98426.06;;;20.49;56.63
60240;BME280;46102;39.012;-7.064;2023-05-25T07:17:58;98425.03;;;20.61;56.99
60240;BME280;46102;39.012;-7.064;2023-05-25T07:19:59;98435.88;;;20.80;56.31
60240;BME280;46102;39.012;-7.064;2023-05-25T07:22:00;98434.38;;;20.93;55.87
60240;BME280;46102;39.012;-7.064;2023-05-25T07:24:01;98434.06;;;21.06;55.67
60240;BME280;46102;39.012;-7.064;2023-05-25T07:26:02;98432.94;;;21.21;55.55
60240;BME280;46102;39.012;-7.064;2023-05-25T07:28:03;98427.81;;;21.34;55.14
60240;BME280;46102;39.012;-7.064;2023-05-25T07:30:05;98431.88;;;21.44;55.13
60240;BME280;46102;39.012;-7.064;2023-05-25T07:32:09;98432.31;;;21.60;54.46
60240;BME280;46102;39.012;-7.064;2023-05-25T07:34:09;98434.75;;;21.72;54.48
60240;BME280;46102;39.012;-7.064;2023-05-25T07:36:10;98433.19;;;21.82;53.87
60240;BME280;46102;39.012;-7.064;2023-05-25T07:38:11;98431.19;;;21.86;53.84
60240;BME280;46102;39.012;-7.064;2023-05-25T07:40:12;98429.63;;;21.96;53.53
60240;BME280;46102;39.012;-7.064;2023-05-25T07:42:13;98426.03;;;22.06;53.26
60240;BME280;46102;39.012;-7.064;2023-05-25T07:44:20;98436.06;;;22.21;52.64
60240;BME280;46102;39.012;-7.064;2023-05-25T07:46:20;98428.88;;;22.42;52.04
60240;BME280;46102;39.012;-7.064;2023-05-25T07:48:24;98432.44;;;22.60;51.68
60240;BME280;46102;39.012;-7.064;2023-05-25T07:50:25;98442.44;;;22.65;50.87
60240;BME280;46102;39.012;-7.064;2023-05-25T07:52:25;98444.03;;;22.77;50.75
60240;BME280;46102;39.012;-7.064;2023-05-25T07:54:26;98436.41;;;22.95;50.40
60240;BME280;46102;39.012;-7.064;2023-05-25T07:56:27;98435.59;;;23.13;49.84
60240;BME280;46102;39.012;-7.064;2023-05-25T07:58:28;98438.34;;;23.27;49.37
60240;BME280;46102;39.012;-7.064;2023-05-25T08:00:29;98443.09;;;23.44;48.69
60240;BME280;46102;39.012;-7.064;2023-05-25T08:02:30;98447.78;;;23.62;48.58
60240;BME280;46102;39.012;-7.064;2023-05-25T08:04:31;98436.53;;;23.73;47.93
60240;BME280;46102;39.012;-7.064;2023-05-25T08:06:33;98437.34;;;23.80;47.69
60240;BME280;46102;39.012;-7.064;2023-05-25T08:08:33;98440.03;;;23.95;47.50
60240;BME280;46102;39.012;-7.064;2023-05-25T08:10:36;98444.34;;;24.10;47.02
60240;BME280;46102;39.012;-7.064;2023-05-25T08:12:37;98446.97;;;24.31;46.84
60240;BME280;46102;39.012;-7.064;2023-05-25T08:14:37;98448.06;;;24.52;46.20
60240;BME280;46102;39.012;-7.064;2023-05-25T08:16:38;98449.56;;;24.64;45.95
60240;BME280;46102;39.012;-7.064;2023-05-25T08:18:39;98445.09;;;24.70;45.42
60240;BME280;46102;39.012;-7.064;2023-05-25T08:20:43;98454.16;;;24.85;45.17
60240;BME280;46102;39.012;-7.064;2023-05-25T08:22:44;98454.41;;;25.01;44.24
60240;BME280;46102;39.012;-7.064;2023-05-25T08:24:44;98455.84;;;25.20;43.96
60240;BME280;46102;39.012;-7.064;2023-05-25T08:26:45;98444.91;;;25.29;43.81
60240;BME280;46102;39.012;-7.064;2023-05-25T08:28:47;98451.63;;;25.39;43.30
60240;BME280;46102;39.012;-7.064;2023-05-25T08:30:48;98449.16;;;25.45;43.09
60240;BME280;46102;39.012;-7.064;2023-05-25T08:32:49;98451.75;;;25.63;43.24
60240;BME280;46102;39.012;-7.064;2023-05-25T08:34:50;98458.00;;;25.74;41.96
60240;BME280;46102;39.012;-7.064;2023-05-25T08:36:51;98449.88;;;25.80;41.50
60240;BME280;46102;39.012;-7.064;2023-05-25T08:38:51;98453.97;;;25.75;41.81
60240;BME280;46102;39.012;-7.064;2023-05-25T08:41:04;98451.81;;;25.86;41.43
60240;BME280;46102;39.012;-7.064;2023-05-25T08:43:05;98457.69;;;25.99;41.07
60240;BME280;46102;39.012;-7.064;2023-05-25T08:45:06;98449.81;;;26.14;40.70
60240;BME280;46102;39.012;-7.064;2023-05-25T08:47:09;98451.09;;;26.36;40.82
60240;BME280;46102;39.012;-7.064;2023-05-25T08:49:13;98443.91;;;26.59;40.47
60240;BME280;46102;39.012;-7.064;2023-05-25T08:51:15;98457.75;;;26.73;39.31
60240;BME280;46102;39.012;-7.064;2023-05-25T08:53:17;98446.38;;;26.81;38.53
60240;BME280;46102;39.012;-7.064;2023-05-25T08:55:21;98453.22;;;26.79;38.53
60240;BME280;46102;39.012;-7.064;2023-05-25T08:57:42;98454.56;;;26.71;38.46
60240;BME280;46102;39.012;-7.064;2023-05-25T09:00:04;98448.94;;;26.71;38.80
60240;BME280;46102;39.012;-7.064;2023-05-25T09:04:29;98450.66;;;26.89;38.10
60240;BME280;46102;39.012;-7.064;2023-05-25T09:06:32;98451.31;;;26.96;37.66
60240;BME280;46102;39.012;-7.064;2023-05-25T09:08:36;98454.53;;;26.95;37.90
60240;BME280;46102;39.012;-7.064;2023-05-25T09:10:39;98450.09;;;27.17;37.76
60240;BME280;46102;39.012;-7.064;2023-05-25T09:12:41;98446.84;;;27.23;37.92
60240;BME280;46102;39.012;-7.064;2023-05-25T09:14:43;98452.50;;;27.19;37.20
60240;BME280;46102;39.012;-7.064;2023-05-25T09:16:47;98453.13;;;27.07;37.61
60240;BME280;46102;39.012;-7.064;2023-05-25T09:18:49;98444.88;;;26.96;37.98
60240;BME280;46102;39.012;-7.064;2023-05-25T09:20:51;98455.22;;;27.03;37.74
60240;BME280;46102;39.012;-7.064;2023-05-25T09:22:52;98455.34;;;27.15;37.60
60240;BME280;46102;39.012;-7.064;2023-05-25T09:24:53;98446.75;;;27.46;37.45
60240;BME280;46102;39.012;-7.064;2023-05-25T09:26:54;98444.53;;;27.74;36.47
60240;BME280;46102;39.012;-7.064;2023-05-25T09:28:55;98452.56;;;27.75;35.80
60240;BME280;46102;39.012;-7.064;2023-05-25T09:30:56;98448.41;;;27.64;36.51
60240;BME280;46102;39.012;-7.064;2023-05-25T09:33:13;98444.13;;;27.75;35.73
60240;BME280;46102;39.012;-7.064;2023-05-25T09:35:14;98446.50;;;27.97;35.03
60240;BME280;46102;39.012;-7.064;2023-05-25T09:37:16;98451.84;;;27.91;34.56
60240;BME280;46102;39.012;-7.064;2023-05-25T09:39:18;98455.09;;;27.90;34.61
60240;BME280;46102;39.012;-7.064;2023-05-25T09:41:19;98453.00;;;27.74;34.66
60240;BME280;46102;39.012;-7.064;2023-05-25T09:43:20;98449.34;;;27.57;34.71
60240;BME280;46102;39.012;-7.064;2023-05-25T09:45:22;98448.31;;;27.87;34.64
60240;BME280;46102;39.012;-7.064;2023-05-25T09:47:23;98453.13;;;28.23;34.12
60240;BME280;46102;39.012;-7.064;2023-05-25T09:49:25;98446.00;;;28.35;33.84
60240;BME280;46102;39.012;-7.064;2023-05-25T09:51:26;98449.16;;;28.20;32.91
60240;BME280;46102;39.012;-7.064;2023-05-25T09:53:27;98444.78;;;28.36;33.02
60240;BME280;46102;39.012;-7.064;2023-05-25T09:55:29;98437.03;;;28.73;32.69
60240;BME280;46102;39.012;-7.064;2023-05-25T09:57:30;98439.84;;;28.89;32.64
60240;BME280;46102;39.012;-7.064;2023-05-25T09:59:30;98435.50;;;29.01;32.17
60240;BME280;46102;39.012;-7.064;2023-05-25T10:01:32;98439.00;;;29.21;32.42
60240;BME280;46102;39.012;-7.064;2023-05-25T10:03:33;98442.41;;;29.29;31.54
60240;BME280;46102;39.012;-7.064;2023-05-25T10:05:35;98438.97;;;29.51;31.94
60240;BME280;46102;39.012;-7.064;2023-05-25T10:07:36;98436.72;;;29.58;32.11
60240;BME280;46102;39.012;-7.064;2023-05-25T10:09:40;98435.50;;;29.59;31.82
60240;BME280;46102;39.012;-7.064;2023-05-25T10:11:43;98438.34;;;29.72;31.53
60240;BME280;46102;39.012;-7.064;2023-05-25T10:13:45;98428.44;;;29.93;31.93
60240;BME280;46102;39.012;-7.064;2023-05-25T10:15:47;98424.69;;;29.96;30.97
60240;BME280;46102;39.012;-7.064;2023-05-25T10:17:53;98429.22;;;29.94;31.18
60240;BME280;46102;39.012;-7.064;2023-05-25T10:19:58;98426.59;;;29.74;32.09
60240;BME280;46102;39.012;-7.064;2023-05-25T10:22:15;98422.00;;;29.80;31.45
60240;BME280;46102;39.012;-7.064;2023-05-25T10:24:25;98421.00;;;29.99;31.07
60240;BME280;46102;39.012;-7.064;2023-05-25T10:26:34;98424.50;;;30.29;29.76
60240;BME280;46102;39.012;-7.064;2023-05-25T10:28:38;98420.44;;;30.30;29.94
60240;BME280;46102;39.012;-7.064;2023-05-25T10:30:41;98423.59;;;30.45;29.70
60240;BME280;46102;39.012;-7.064;2023-05-25T10:32:43;98421.13;;;30.69;29.71
60240;BME280;46102;39.012;-7.064;2023-05-25T10:34:45;98422.13;;;31.01;29.20
60240;BME280;46102;39.012;-7.064;2023-05-25T10:36:49;98404.59;;;31.15;28.99
60240;BME280;46102;39.012;-7.064;2023-05-25T10:38:51;98412.03;;;31.22;28.72
60240;BME280;46102;39.012;-7.064;2023-05-25T10:40:53;98417.50;;;31.38;27.88
60240;BME280;46102;39.012;-7.064;2023-05-25T10:42:55;98420.69;;;31.62;28.17
60240;BME280;46102;39.012;-7.064;2023-05-25T10:44:56;98422.16;;;31.76;27.74